createdAt,value
2018-09-18T00:00:20.015Z,2.70
2018-09-18T00:01:20.017Z,3.00
2018-09-18T00:02:20.015Z,2.60
2018-09-18T00:03:20.012Z,2.70
2018-09-18T00:04:20.010Z,2.70
2018-09-18T00:05:20.004Z,2.70
2018-09-18T00:06:20.007Z,3.00
2018-09-18T00:07:20.004Z,2.80
2018-09-18T00:08:20.004Z,2.80
2018-09-18T00:09:19.996Z,2.80
2018-09-18T00:10:19.994Z,2.80
2018-09-18T00:11:19.993Z,3.00
2018-09-18T00:12:19.991Z,2.80
2018-09-18T00:13:19.992Z,2.70
2018-09-18T00:14:19.989Z,2.90
2018-09-18T00:15:19.988Z,2.90
2018-09-18T00:16:19.987Z,2.80
2018-09-18T00:17:19.980Z,3.00
2018-09-18T00:18:19.977Z,2.60
2018-09-18T00:19:19.976Z,2.70
2018-09-18T00:20:19.977Z,3.00
2018-09-18T00:21:19.977Z,2.80
2018-09-18T00:22:19.975Z,2.90
2018-09-18T00:23:19.970Z,2.80
2018-09-18T00:24:19.966Z,2.60
2018-09-18T00:25:19.968Z,2.60
2018-09-18T00:26:19.968Z,2.90
2018-09-18T00:27:19.964Z,2.90
2018-09-18T00:28:19.961Z,2.70
2018-09-18T00:29:19.955Z,2.70
2018-09-18T00:30:19.954Z,2.90
2018-09-18T00:31:19.952Z,2.70
2018-09-18T00:32:19.952Z,2.80
2018-09-18T00:33:19.952Z,2.60
2018-09-18T00:34:19.956Z,3.10
2018-09-18T00:35:19.947Z,2.80
2018-09-18T00:36:19.947Z,3.00
2018-09-18T00:37:19.940Z,2.90
2018-09-18T00:38:19.936Z,3.00
2018-09-18T00:39:19.941Z,3.00
2018-09-18T00:40:19.939Z,2.80
2018-09-18T00:41:19.931Z,2.60
2018-09-18T00:42:19.930Z,2.60
2018-09-18T00:43:19.927Z,3.10
2018-09-18T00:44:19.925Z,2.60
2018-09-18T00:45:19.927Z,2.90
2018-09-18T00:46:19.928Z,2.70
2018-09-18T00:47:19.924Z,3.00
2018-09-18T00:48:19.921Z,2.90
2018-09-18T00:49:19.913Z,2.80
2018-09-18T00:50:19.912Z,3.10
2018-09-18T00:51:19.911Z,3.00
2018-09-18T00:52:19.910Z,2.80
2018-09-18T00:53:19.911Z,2.70
2018-09-18T00:54:19.959Z,3.00
2018-09-18T00:55:19.905Z,2.80
2018-09-18T00:56:19.900Z,2.70
2018-09-18T00:57:19.908Z,2.80
2018-09-18T00:58:19.901Z,2.70
2018-09-18T00:59:19.898Z,2.80
2018-09-18T01:00:19.896Z,2.80
2018-09-18T01:01:19.890Z,3.00
2018-09-18T01:02:19.887Z,2.90
2018-09-18T01:03:19.885Z,2.80
2018-09-18T01:04:19.884Z,2.60
2018-09-18T01:05:19.885Z,2.80
2018-09-18T01:06:19.883Z,2.90
2018-09-18T01:07:19.882Z,2.80
2018-09-18T01:08:19.880Z,2.70
2018-09-18T01:09:19.876Z,2.50
2018-09-18T01:10:19.872Z,2.80
2018-09-18T01:11:19.877Z,3.00
2018-09-18T01:12:19.872Z,2.50
2018-09-18T01:13:19.865Z,2.90
2018-09-18T01:14:19.861Z,2.70
2018-09-18T01:15:19.863Z,2.60
2018-09-18T01:16:19.858Z,2.80
2018-09-18T01:17:19.860Z,2.70
2018-09-18T01:18:19.857Z,2.80
2018-09-18T01:19:19.861Z,2.80
2018-09-18T01:20:19.855Z,2.60
2018-09-18T01:21:19.849Z,2.80
2018-09-18T01:22:19.845Z,3.00
2018-09-18T01:23:19.845Z,2.90
2018-09-18T01:24:19.846Z,2.70
2018-09-18T01:25:19.847Z,3.10
2018-09-18T01:26:19.842Z,2.60
2018-09-18T01:27:19.836Z,2.80
2018-09-18T01:28:19.834Z,2.50
2018-09-18T01:29:19.836Z,2.60
2018-09-18T01:30:19.833Z,2.70
2018-09-18T01:31:19.832Z,2.50
2018-09-18T01:32:19.831Z,2.80
2018-09-18T01:33:19.823Z,2.80
2018-09-18T01:34:19.820Z,2.70
2018-09-18T01:35:19.820Z,2.80
2018-09-18T01:36:19.818Z,2.80
2018-09-18T01:37:19.820Z,2.80
2018-09-18T01:38:19.823Z,2.90
2018-09-18T01:39:19.815Z,2.70
2018-09-18T01:40:19.813Z,2.60
2018-09-18T01:41:19.807Z,3.10
2018-09-18T01:42:19.805Z,2.80
2018-09-18T01:43:19.808Z,2.80
2018-09-18T01:44:19.805Z,2.70
2018-09-18T01:45:19.799Z,2.50
2018-09-18T01:46:19.796Z,2.70
2018-09-18T01:47:19.795Z,3.00
2018-09-18T01:48:19.793Z,2.60
2018-09-18T01:49:19.807Z,2.80
2018-09-18T01:50:19.793Z,2.60
2018-09-18T01:51:19.791Z,2.50
2018-09-18T01:52:19.789Z,3.00
2018-09-18T01:53:19.781Z,2.80
2018-09-18T01:54:19.790Z,2.90
2018-09-18T01:55:19.781Z,2.50
2018-09-18T01:56:19.778Z,2.80
2018-09-18T01:57:19.778Z,2.50
2018-09-18T01:58:19.775Z,2.70
2018-09-18T01:59:19.772Z,2.40
2018-09-18T02:00:19.768Z,2.80
2018-09-18T02:01:19.772Z,2.70
2018-09-18T02:02:19.768Z,2.60
2018-09-18T02:03:19.769Z,2.50
2018-09-18T02:04:19.764Z,2.50
2018-09-18T02:05:19.756Z,2.80
2018-09-18T02:06:19.756Z,2.70
2018-09-18T02:07:19.754Z,2.60
2018-09-18T02:08:19.751Z,2.60
2018-09-18T02:09:19.753Z,2.60
2018-09-18T02:10:19.751Z,2.30
2018-09-18T02:11:19.748Z,2.70
2018-09-18T02:12:19.748Z,2.60
2018-09-18T02:13:19.744Z,2.70
2018-09-18T02:14:19.738Z,2.60
2018-09-18T02:15:19.741Z,2.40
2018-09-18T02:16:19.738Z,3.00
2018-09-18T02:17:19.734Z,2.30
2018-09-18T02:18:19.730Z,2.70
2018-09-18T02:19:19.727Z,2.50
2018-09-18T02:20:19.726Z,2.60
2018-09-18T02:21:19.729Z,2.60
2018-09-18T02:22:19.727Z,2.80
2018-09-18T02:23:19.723Z,2.40
2018-09-18T02:24:19.721Z,2.50
2018-09-18T02:25:19.714Z,2.70
2018-09-18T02:26:19.712Z,2.60
2018-09-18T02:27:19.710Z,2.20
2018-09-18T02:28:19.709Z,2.70
2018-09-18T02:29:19.711Z,2.60
2018-09-18T02:30:19.709Z,2.70
2018-09-18T02:31:19.702Z,2.60
2018-09-18T02:32:19.700Z,2.40
2018-09-18T02:33:19.703Z,2.70
2018-09-18T02:34:19.699Z,2.50
2018-09-18T02:35:19.697Z,2.40
2018-09-18T02:36:19.696Z,2.60
2018-09-18T02:37:19.688Z,2.70
2018-09-18T02:38:19.687Z,2.70
2018-09-18T02:39:19.685Z,2.60
2018-09-18T02:40:19.683Z,2.50
2018-09-18T02:41:19.685Z,2.70
2018-09-18T02:42:19.683Z,2.60
2018-09-18T02:43:19.681Z,2.50
2018-09-18T02:44:19.680Z,2.50
2018-09-18T02:45:19.674Z,2.50
2018-09-18T02:46:19.669Z,3.00
2018-09-18T02:47:19.718Z,2.40
2018-09-18T02:48:19.671Z,2.60
2018-09-18T02:49:19.663Z,2.60
2018-09-18T02:50:19.662Z,2.60
2018-09-18T02:51:19.659Z,2.60
2018-09-18T02:52:19.657Z,2.80
2018-09-18T02:53:19.659Z,2.60
2018-09-18T02:54:19.658Z,2.60
2018-09-18T02:55:19.655Z,2.70
2018-09-18T02:56:19.654Z,2.40
2018-09-18T02:57:19.646Z,2.30
2018-09-18T02:58:19.644Z,2.50
2018-09-18T02:59:19.643Z,2.60
2018-09-18T03:00:19.641Z,2.50
2018-09-18T03:01:19.643Z,2.70
2018-09-18T03:02:19.642Z,2.40
2018-09-18T03:03:19.635Z,2.60
2018-09-18T03:04:19.633Z,2.60
2018-09-18T03:05:19.635Z,2.30
2018-09-18T03:06:19.634Z,2.40
2018-09-18T03:07:19.635Z,2.50
2018-09-18T03:08:19.638Z,2.70
2018-09-18T03:09:19.625Z,2.40
2018-09-18T03:10:19.620Z,2.60
2018-09-18T03:11:19.672Z,2.50
2018-09-18T03:12:19.615Z,2.50
2018-09-18T03:13:19.618Z,2.60
2018-09-18T03:14:19.617Z,2.40
2018-09-18T03:15:19.616Z,2.50
2018-09-18T03:16:19.612Z,2.50
2018-09-18T03:17:19.606Z,2.30
2018-09-18T03:18:19.607Z,2.70
2018-09-18T03:19:19.607Z,2.50
2018-09-18T03:20:19.604Z,2.50
2018-09-18T03:21:19.599Z,2.70
2018-09-18T03:22:19.595Z,2.60
2018-09-18T03:23:19.594Z,2.20
2018-09-18T03:24:19.590Z,2.40
2018-09-18T03:25:19.592Z,2.30
2018-09-18T03:26:19.590Z,2.40
2018-09-18T03:27:19.592Z,2.70
2018-09-18T03:28:19.584Z,2.50
2018-09-18T03:29:19.587Z,2.30
2018-09-18T03:30:19.582Z,2.70
2018-09-18T03:31:19.579Z,2.30
2018-09-18T03:32:19.583Z,2.40
2018-09-18T03:33:19.570Z,2.60
2018-09-18T03:34:19.568Z,2.60
2018-09-18T03:35:19.574Z,2.80
2018-09-18T03:36:19.571Z,2.70
2018-09-18T03:37:19.561Z,2.90
2018-09-18T03:38:19.562Z,2.40
2018-09-18T03:39:19.558Z,2.40
2018-09-18T03:40:19.556Z,2.60
2018-09-18T03:41:19.559Z,2.30
2018-09-18T03:42:19.557Z,2.40
2018-09-18T03:43:19.556Z,2.30
2018-09-18T03:44:19.553Z,2.70
2018-09-18T03:45:19.546Z,2.30
2018-09-18T03:46:19.543Z,2.70
2018-09-18T03:47:19.540Z,2.60
2018-09-18T03:48:19.540Z,2.60
2018-09-18T03:49:19.540Z,2.40
2018-09-18T03:50:19.539Z,2.50
2018-09-18T03:51:19.534Z,2.50
2018-09-18T03:52:19.530Z,2.30
2018-09-18T03:53:19.532Z,2.30
2018-09-18T03:54:19.533Z,2.40
2018-09-18T03:55:19.531Z,2.50
2018-09-18T03:56:19.527Z,2.50
2018-09-18T03:57:19.518Z,2.60
2018-09-18T03:58:19.517Z,2.40
2018-09-18T03:59:19.520Z,2.40
2018-09-18T04:00:19.513Z,2.50
2018-09-18T04:01:19.515Z,2.50
2018-09-18T04:02:19.513Z,2.70
2018-09-18T04:03:19.511Z,2.70
2018-09-18T04:04:19.508Z,2.30
2018-09-18T04:05:19.503Z,2.30
2018-09-18T04:06:19.498Z,2.40
2018-09-18T04:07:19.502Z,2.20
2018-09-18T04:08:19.500Z,2.70
2018-09-18T04:09:19.493Z,2.40
2018-09-18T04:10:19.491Z,2.40
2018-09-18T04:11:19.489Z,2.30
2018-09-18T04:12:19.488Z,2.40
2018-09-18T04:13:19.489Z,2.60
2018-09-18T04:14:19.486Z,2.50
2018-09-18T04:15:19.485Z,2.50
2018-09-18T04:16:19.483Z,2.20
2018-09-18T04:17:19.504Z,2.60
2018-09-18T04:18:19.472Z,2.30
2018-09-18T04:19:19.470Z,2.60
2018-09-18T04:20:19.469Z,2.20
2018-09-18T04:21:19.471Z,2.50
2018-09-18T04:22:19.469Z,2.60
2018-09-18T04:23:19.462Z,2.50
2018-09-18T04:24:19.461Z,2.60
2018-09-18T04:25:19.461Z,2.50
2018-09-18T04:26:19.460Z,2.50
2018-09-18T04:27:19.458Z,2.50
2018-09-18T04:28:19.457Z,2.40
2018-09-18T04:29:19.451Z,2.50
2018-09-18T04:30:19.447Z,2.20
2018-09-18T04:31:19.444Z,2.60
2018-09-18T04:32:19.442Z,2.50
2018-09-18T04:33:19.443Z,2.40
2018-09-18T04:34:19.454Z,2.40
2018-09-18T04:35:19.443Z,2.40
2018-09-18T04:36:19.439Z,2.50
2018-09-18T04:37:19.431Z,2.60
2018-09-18T04:38:19.429Z,2.50
2018-09-18T04:39:19.432Z,2.70
2018-09-18T04:40:19.431Z,2.70
2018-09-18T04:41:19.421Z,2.40
2018-09-18T04:42:19.420Z,2.40
2018-09-18T04:43:19.418Z,2.50
2018-09-18T04:44:19.417Z,2.50
2018-09-18T04:45:19.417Z,2.50
2018-09-18T04:46:19.416Z,2.50
2018-09-18T04:47:19.414Z,2.50
2018-09-18T04:48:19.411Z,2.60
2018-09-18T04:49:19.409Z,2.80
2018-09-18T04:50:19.402Z,2.40
2018-09-18T04:51:19.400Z,2.70
2018-09-18T04:52:19.398Z,2.80
2018-09-18T04:53:19.399Z,2.40
2018-09-18T04:54:19.399Z,2.30
2018-09-18T04:55:19.392Z,2.40
2018-09-18T04:56:19.389Z,2.40
2018-09-18T04:57:19.391Z,2.60
2018-09-18T04:58:19.391Z,2.30
2018-09-18T04:59:19.387Z,2.40
2018-09-18T05:00:19.385Z,2.80
2018-09-18T05:01:19.377Z,2.30
2018-09-18T05:02:19.375Z,2.60
2018-09-18T05:03:19.373Z,2.70
2018-09-18T05:04:19.371Z,2.60
2018-09-18T05:05:19.372Z,2.60
2018-09-18T05:06:19.370Z,2.60
2018-09-18T05:07:19.372Z,2.60
2018-09-18T05:08:19.367Z,2.20
2018-09-18T05:09:19.416Z,2.70
2018-09-18T05:10:19.358Z,2.60
2018-09-18T05:11:19.360Z,2.80
2018-09-18T05:12:19.358Z,2.80
2018-09-18T05:13:19.350Z,2.50
2018-09-18T05:14:19.349Z,2.80
2018-09-18T05:15:19.345Z,2.70
2018-09-18T05:16:19.343Z,2.60
2018-09-18T05:17:19.345Z,2.70
2018-09-18T05:18:19.342Z,2.50
2018-09-18T05:19:19.340Z,2.40
2018-09-18T05:20:19.338Z,2.50
2018-09-18T05:21:19.332Z,2.60
2018-09-18T05:22:19.329Z,2.50
2018-09-18T05:23:19.328Z,2.50
2018-09-18T05:24:19.326Z,2.60
2018-09-18T05:25:19.328Z,2.40
2018-09-18T05:26:19.325Z,2.60
2018-09-18T05:27:19.319Z,2.60
2018-09-18T05:28:19.317Z,2.70
2018-09-18T05:29:19.319Z,2.60
2018-09-18T05:30:19.316Z,2.60
2018-09-18T05:31:19.315Z,2.60
2018-09-18T05:32:19.313Z,2.80
2018-09-18T05:33:19.305Z,2.60
2018-09-18T05:34:19.305Z,2.90
2018-09-18T05:35:19.301Z,2.50
2018-09-18T05:36:19.300Z,2.60
2018-09-18T05:37:19.302Z,2.60
2018-09-18T05:38:19.300Z,2.50
2018-09-18T05:39:19.298Z,2.40
2018-09-18T05:40:19.294Z,2.80
2018-09-18T05:41:19.287Z,2.50
2018-09-18T05:42:19.287Z,2.70
2018-09-18T05:43:19.290Z,2.50
2018-09-18T05:44:19.287Z,2.50
2018-09-18T05:45:19.280Z,2.50
2018-09-18T05:46:19.280Z,2.50
2018-09-18T05:47:19.277Z,2.60
2018-09-18T05:48:19.276Z,2.60
2018-09-18T05:49:19.279Z,2.90
2018-09-18T05:50:19.277Z,2.60
2018-09-18T05:51:19.280Z,2.60
2018-09-18T05:52:19.277Z,2.80
2018-09-18T05:53:19.270Z,2.90
2018-09-18T05:54:19.270Z,2.60
2018-09-18T05:55:19.269Z,2.80
2018-09-18T05:56:19.271Z,2.80
2018-09-18T05:57:19.275Z,2.70
2018-09-18T05:58:19.273Z,3.10
2018-09-18T05:59:19.269Z,2.80
2018-09-18T06:00:19.270Z,2.60
2018-09-18T06:01:19.275Z,2.50
2018-09-18T06:02:19.310Z,2.80
2018-09-18T06:03:19.277Z,2.60
2018-09-18T06:04:19.280Z,2.60
2018-09-18T06:05:19.274Z,2.70
2018-09-18T06:06:19.276Z,2.70
2018-09-18T06:07:19.277Z,2.70
2018-09-18T06:08:19.279Z,2.90
2018-09-18T06:09:19.284Z,2.70
2018-09-18T06:10:19.286Z,2.60
2018-09-18T06:11:19.289Z,2.60
2018-09-18T06:12:19.292Z,2.60
2018-09-18T06:13:19.287Z,2.70
2018-09-18T06:14:19.290Z,2.70
2018-09-18T06:15:19.295Z,3.00
2018-09-18T06:16:19.298Z,2.90
2018-09-18T06:17:19.296Z,3.00
2018-09-18T06:18:19.299Z,2.90
2018-09-18T06:19:19.344Z,3.00
2018-09-18T06:20:19.304Z,2.80
2018-09-18T06:21:19.314Z,2.70
2018-09-18T06:22:19.315Z,2.60
2018-09-18T06:23:19.318Z,2.50
2018-09-18T06:24:19.322Z,2.60
2018-09-18T06:25:19.319Z,2.50
2018-09-18T06:26:19.445Z,2.90
2018-09-18T06:27:19.325Z,2.70
2018-09-18T06:28:19.329Z,3.00
2018-09-18T06:29:19.335Z,3.00
2018-09-18T06:30:19.341Z,3.00
2018-09-18T06:31:19.340Z,2.70
2018-09-18T06:32:19.343Z,2.90
2018-09-18T06:33:19.350Z,2.70
2018-09-18T06:34:19.355Z,3.10
2018-09-18T06:35:19.360Z,2.70
2018-09-18T06:36:19.364Z,2.90
2018-09-18T06:37:19.364Z,3.00
2018-09-18T06:38:19.367Z,2.70
2018-09-18T06:39:19.373Z,3.50
2018-09-18T06:40:19.378Z,2.60
2018-09-18T06:41:19.386Z,2.80
2018-09-18T06:42:19.441Z,2.80
2018-09-18T06:43:19.396Z,2.80
2018-09-18T06:44:19.401Z,3.00
2018-09-18T06:45:19.402Z,2.80
2018-09-18T06:46:19.406Z,2.80
2018-09-18T06:47:19.415Z,3.20
2018-09-18T06:48:19.421Z,2.80
2018-09-18T06:49:19.424Z,2.80
2018-09-18T06:50:19.428Z,2.90
2018-09-18T06:51:19.430Z,3.10
2018-09-18T06:52:19.435Z,3.20
2018-09-18T06:53:19.445Z,2.90
2018-09-18T06:54:19.466Z,3.00
2018-09-18T06:55:19.457Z,3.00
2018-09-18T06:56:19.461Z,2.80
2018-09-18T06:57:19.463Z,2.60
2018-09-18T06:58:19.467Z,2.70
2018-09-18T06:59:19.474Z,2.90
2018-09-18T07:00:19.480Z,3.00
2018-09-18T07:01:19.493Z,3.00
2018-09-18T07:02:19.496Z,3.00
2018-09-18T07:03:19.497Z,2.90
2018-09-18T07:04:19.504Z,3.00
2018-09-18T07:05:19.514Z,2.80
2018-09-18T07:06:19.524Z,2.90
2018-09-18T07:07:19.525Z,3.20
2018-09-18T07:08:19.532Z,2.90
2018-09-18T07:09:19.533Z,3.00
2018-09-18T07:10:19.540Z,2.80
2018-09-18T07:11:19.553Z,2.60
2018-09-18T07:12:19.559Z,2.70
2018-09-18T07:13:19.565Z,3.10
2018-09-18T07:14:19.618Z,3.00
2018-09-18T07:15:19.579Z,3.20
2018-09-18T07:16:19.586Z,3.00
2018-09-18T07:17:19.586Z,3.20
2018-09-18T07:18:19.594Z,3.10
2018-09-18T07:19:19.607Z,3.10
2018-09-18T07:20:19.614Z,2.90
2018-09-18T07:21:19.619Z,3.00
2018-09-18T07:22:19.624Z,2.90
2018-09-18T07:23:19.631Z,3.30
2018-09-18T07:24:19.638Z,2.80
2018-09-18T07:25:19.653Z,3.10
2018-09-18T07:26:19.658Z,3.30
2018-09-18T07:27:19.665Z,3.40
2018-09-18T07:28:19.673Z,3.10
2018-09-18T07:29:19.708Z,3.20
2018-09-18T07:30:19.684Z,3.00
2018-09-18T07:31:19.692Z,3.20
2018-09-18T07:32:19.701Z,2.90
2018-09-18T07:33:19.712Z,3.00
2018-09-18T07:34:19.721Z,3.20
2018-09-18T07:35:19.725Z,3.00
2018-09-18T07:36:19.735Z,3.00
2018-09-18T07:37:19.745Z,2.90
2018-09-18T07:38:19.753Z,2.80
2018-09-18T07:39:19.761Z,2.70
2018-09-18T07:40:19.770Z,2.80
2018-09-18T07:41:19.772Z,3.00
2018-09-18T07:42:19.783Z,3.00
2018-09-18T07:43:19.790Z,3.00
2018-09-18T07:44:19.800Z,2.90
2018-09-18T07:45:19.812Z,3.10
2018-09-18T07:46:19.820Z,2.90
2018-09-18T07:47:19.881Z,3.20
2018-09-18T07:48:19.840Z,2.90
2018-09-18T07:49:19.844Z,2.60
2018-09-18T07:50:19.853Z,2.80
2018-09-18T07:51:19.867Z,3.00
2018-09-18T07:52:19.931Z,2.90
2018-09-18T07:53:19.881Z,3.60
2018-09-18T07:54:19.889Z,3.10
2018-09-18T07:55:19.902Z,3.40
2018-09-18T07:56:19.911Z,3.10
2018-09-18T07:57:19.924Z,3.00
2018-09-18T07:58:19.931Z,2.70
2018-09-18T07:59:19.943Z,3.10
2018-09-18T08:00:19.953Z,3.20
2018-09-18T08:01:20.057Z,2.80
2018-09-18T08:02:19.968Z,3.20
2018-09-18T08:03:19.986Z,3.20
2018-09-18T08:04:19.988Z,3.00
2018-09-18T08:05:20.002Z,3.10
2018-09-18T08:06:20.013Z,3.10
2018-09-18T08:07:20.018Z,3.10
2018-09-18T08:08:20.028Z,3.00
2018-09-18T08:09:20.042Z,3.20
2018-09-18T08:10:20.057Z,3.00
2018-09-18T08:11:20.063Z,3.00
2018-09-18T08:12:20.072Z,3.10
2018-09-18T08:13:20.078Z,3.10
2018-09-18T08:14:20.090Z,3.10
2018-09-18T08:15:20.099Z,3.10
2018-09-18T08:16:20.111Z,3.10
2018-09-18T08:17:20.125Z,3.20
2018-09-18T08:18:20.135Z,3.10
2018-09-18T08:19:20.243Z,3.00
2018-09-18T08:20:20.158Z,3.10
2018-09-18T08:21:20.163Z,3.40
2018-09-18T08:22:20.173Z,3.00
2018-09-18T08:23:20.190Z,3.00
2018-09-18T08:24:20.200Z,3.40
2018-09-18T08:25:20.324Z,3.00
2018-09-18T08:26:20.219Z,3.00
2018-09-18T08:27:20.227Z,2.90
2018-09-18T08:28:20.239Z,3.20
2018-09-18T08:29:20.255Z,3.40
2018-09-18T08:30:20.268Z,3.40
2018-09-18T08:31:20.278Z,3.20
2018-09-18T08:32:20.288Z,3.20
2018-09-18T08:33:20.295Z,3.20
2018-09-18T08:34:20.310Z,3.80
2018-09-18T08:35:20.318Z,3.50
2018-09-18T08:36:20.331Z,3.30
2018-09-18T08:37:20.347Z,3.30
2018-09-18T08:38:20.359Z,3.40
2018-09-18T08:39:20.371Z,3.40
2018-09-18T08:40:20.379Z,3.40
2018-09-18T08:41:20.414Z,3.40
2018-09-18T08:42:20.418Z,3.20
2018-09-18T08:43:20.419Z,3.30
2018-09-18T08:44:20.431Z,3.30
2018-09-18T08:45:20.438Z,3.50
2018-09-18T08:46:20.465Z,3.30
2018-09-18T08:47:20.464Z,3.30
2018-09-18T08:48:20.476Z,3.10
2018-09-18T08:49:20.494Z,3.20
2018-09-18T08:50:20.509Z,3.30
2018-09-18T08:51:20.518Z,3.20
2018-09-18T08:52:20.555Z,3.40
2018-09-18T08:53:20.565Z,3.10
2018-09-18T08:54:20.568Z,3.50
2018-09-18T08:55:20.569Z,3.20
2018-09-18T08:56:20.606Z,3.40
2018-09-18T08:57:20.611Z,3.50
2018-09-18T08:58:20.604Z,3.60
2018-09-18T08:59:20.618Z,3.20
2018-09-18T09:00:20.631Z,3.70
2018-09-18T09:01:20.648Z,3.50
2018-09-18T09:02:20.662Z,3.50
2018-09-18T09:03:20.676Z,3.50
2018-09-18T09:04:20.693Z,3.30
2018-09-18T09:05:20.765Z,3.30
2018-09-18T09:06:20.791Z,3.50
2018-09-18T09:07:20.752Z,3.30
2018-09-18T09:08:20.804Z,2.80
2018-09-18T09:09:20.869Z,3.20
2018-09-18T09:10:20.844Z,3.30
2018-09-18T09:11:20.805Z,3.70
2018-09-18T09:12:20.797Z,3.40
2018-09-18T09:13:20.825Z,3.30
2018-09-18T09:14:20.901Z,3.40
2018-09-18T09:15:20.861Z,3.70
2018-09-18T09:16:20.861Z,3.30
2018-09-18T09:17:20.875Z,3.30
2018-09-18T09:18:20.994Z,3.60
2018-09-18T09:19:20.923Z,3.50
2018-09-18T09:20:20.917Z,3.30
2018-09-18T09:21:21.035Z,3.50
2018-09-18T09:22:21.045Z,3.90
2018-09-18T09:23:20.968Z,3.50
2018-09-18T09:24:21.007Z,3.40
2018-09-18T09:25:20.990Z,3.40
2018-09-18T09:26:21.044Z,3.30
2018-09-18T09:27:21.056Z,3.50
2018-09-18T09:28:21.042Z,3.60
2018-09-18T09:29:21.052Z,3.60
2018-09-18T09:30:21.075Z,3.60
2018-09-18T09:31:21.087Z,3.40
2018-09-18T09:32:21.137Z,3.30
2018-09-18T09:33:21.137Z,3.50
2018-09-18T09:34:21.159Z,3.60
2018-09-18T09:35:21.173Z,3.40
2018-09-18T09:36:21.165Z,3.30
2018-09-18T09:37:21.355Z,3.40
2018-09-18T09:38:21.190Z,3.40
2018-09-18T09:39:21.206Z,3.70
2018-09-18T09:40:21.222Z,3.40
2018-09-18T09:41:21.241Z,3.70
2018-09-18T09:42:21.256Z,3.40
2018-09-18T09:43:21.267Z,3.50
2018-09-18T09:44:21.284Z,3.60
2018-09-18T09:45:21.303Z,3.50
2018-09-18T09:46:21.318Z,3.60
2018-09-18T09:47:21.335Z,3.50
2018-09-18T09:48:21.351Z,3.40
2018-09-18T09:49:21.361Z,3.40
2018-09-18T09:50:21.377Z,3.50
2018-09-18T09:51:21.544Z,3.40
2018-09-18T09:52:21.410Z,3.10
2018-09-18T09:53:21.426Z,3.10
2018-09-18T09:54:21.442Z,3.50
2018-09-18T09:55:21.461Z,3.40
2018-09-18T09:56:21.475Z,3.60
2018-09-18T09:57:21.486Z,3.10
2018-09-18T09:58:21.501Z,3.50
2018-09-18T09:59:21.522Z,3.90
2018-09-18T10:00:21.540Z,4.20
2018-09-18T10:01:21.548Z,3.80
2018-09-18T10:02:21.611Z,3.90
2018-09-18T10:03:21.582Z,3.50
2018-09-18T10:04:21.597Z,3.40
2018-09-18T10:05:21.617Z,3.40
2018-09-18T10:06:21.635Z,3.70
2018-09-18T10:07:21.650Z,3.50
2018-09-18T10:08:21.667Z,3.50
2018-09-18T10:09:21.678Z,3.50
2018-09-18T10:10:21.748Z,3.40
2018-09-18T10:11:21.710Z,4.30
2018-09-18T10:12:21.728Z,3.30
2018-09-18T10:13:21.759Z,3.80
2018-09-18T10:14:21.768Z,3.80
2018-09-18T10:15:21.775Z,3.80
2018-09-18T10:16:21.792Z,3.40
2018-09-18T10:17:21.813Z,3.50
2018-09-18T10:18:21.829Z,3.80
2018-09-18T10:19:21.844Z,4.00
2018-09-18T10:20:21.860Z,3.50
2018-09-18T10:21:21.872Z,3.80
2018-09-18T10:22:21.887Z,3.70
2018-09-18T10:23:21.911Z,3.70
2018-09-18T10:24:21.927Z,3.60
2018-09-18T10:25:21.960Z,3.50
2018-09-18T10:26:22.045Z,3.90
2018-09-18T10:27:21.994Z,3.60
2018-09-18T10:28:22.010Z,3.80
2018-09-18T10:29:22.000Z,3.40
2018-09-18T10:30:22.013Z,3.70
2018-09-18T10:31:22.033Z,3.70
2018-09-18T10:32:22.050Z,3.20
2018-09-18T10:33:22.060Z,3.40
2018-09-18T10:34:22.075Z,3.60
2018-09-18T10:35:22.119Z,3.50
2018-09-18T10:36:22.128Z,3.60
2018-09-18T10:37:22.127Z,3.60
2018-09-18T10:38:22.155Z,3.50
2018-09-18T10:39:22.159Z,3.30
2018-09-18T10:40:22.176Z,3.60
2018-09-18T10:41:22.321Z,3.50
2018-09-18T10:42:22.201Z,3.40
2018-09-18T10:43:22.218Z,3.70
2018-09-18T10:44:22.262Z,3.60
2018-09-18T10:45:22.278Z,3.30
2018-09-18T10:46:22.281Z,3.30
2018-09-18T10:47:22.306Z,3.60
2018-09-18T10:48:22.315Z,3.40
2018-09-18T10:49:22.384Z,4.00
2018-09-18T10:50:22.332Z,3.60
2018-09-18T10:51:22.347Z,3.40
2018-09-18T10:52:22.408Z,3.80
2018-09-18T10:53:22.373Z,3.40
2018-09-18T10:54:22.389Z,3.40
2018-09-18T10:55:22.499Z,4.20
2018-09-18T10:56:22.423Z,3.80
2018-09-18T10:57:22.442Z,3.90
2018-09-18T10:58:22.458Z,3.90
2018-09-18T10:59:22.474Z,4.00
2018-09-18T11:00:22.512Z,3.80
2018-09-18T11:01:22.500Z,4.10
2018-09-18T11:02:22.613Z,3.80
2018-09-18T11:03:22.536Z,4.00
2018-09-18T11:04:22.571Z,3.90
2018-09-18T11:05:22.562Z,4.10
2018-09-18T11:06:22.598Z,4.30
2018-09-18T11:07:22.600Z,3.80
2018-09-18T11:08:22.635Z,3.70
2018-09-18T11:09:22.644Z,3.80
2018-09-18T11:10:22.779Z,3.80
2018-09-18T11:11:22.696Z,4.00
2018-09-18T11:12:22.694Z,4.00
2018-09-18T11:13:22.775Z,3.80
2018-09-18T11:14:22.720Z,3.90
2018-09-18T11:15:22.725Z,3.90
2018-09-18T11:16:22.762Z,3.80
2018-09-18T11:17:22.756Z,3.70
2018-09-18T11:18:22.833Z,4.20
2018-09-18T11:19:22.781Z,3.90
2018-09-18T11:20:22.798Z,3.80
2018-09-18T11:21:22.871Z,3.70
2018-09-18T11:22:22.909Z,3.90
2018-09-18T11:23:22.846Z,3.60
2018-09-18T11:24:22.905Z,3.90
2018-09-18T11:25:22.871Z,3.90
2018-09-18T11:26:22.882Z,4.00
2018-09-18T11:27:22.898Z,3.90
2018-09-18T11:28:22.925Z,4.00
2018-09-18T11:29:22.928Z,3.90
2018-09-18T11:30:22.974Z,3.70
2018-09-18T11:31:23.112Z,4.00
2018-09-18T11:32:22.965Z,4.00
2018-09-18T11:33:22.970Z,3.80
2018-09-18T11:34:22.987Z,3.90
2018-09-18T11:35:22.999Z,3.90
2018-09-18T11:36:23.013Z,3.70
2018-09-18T11:37:23.015Z,3.50
2018-09-18T11:38:23.025Z,3.70
2018-09-18T11:39:23.036Z,3.40
2018-09-18T11:40:23.045Z,3.30
2018-09-18T11:41:23.059Z,3.20
2018-09-18T11:42:23.070Z,3.30
2018-09-18T11:43:23.079Z,3.20
2018-09-18T11:44:23.087Z,3.30
2018-09-18T11:45:23.098Z,3.40
2018-09-18T11:46:23.100Z,3.00
2018-09-18T11:47:23.109Z,3.00
2018-09-18T11:48:23.118Z,3.10
2018-09-18T11:49:23.135Z,3.40
2018-09-18T11:50:23.138Z,3.00
2018-09-18T11:51:23.184Z,3.30
2018-09-18T11:52:23.151Z,3.30
2018-09-18T11:53:23.162Z,3.30
2018-09-18T11:54:23.174Z,3.40
2018-09-18T11:55:23.180Z,3.80
2018-09-18T11:56:23.188Z,3.10
2018-09-18T11:57:23.189Z,3.10
2018-09-18T11:58:23.267Z,3.30
2018-09-18T11:59:23.210Z,3.00
2018-09-18T12:00:23.219Z,3.10
2018-09-18T12:01:23.219Z,3.00
2018-09-18T12:02:23.227Z,2.80
2018-09-18T12:03:23.234Z,3.00
2018-09-18T12:04:23.241Z,3.10
2018-09-18T12:05:23.253Z,3.10
2018-09-18T12:06:23.260Z,3.00
2018-09-18T12:07:23.262Z,2.80
2018-09-18T12:08:23.269Z,3.00
2018-09-18T12:09:23.281Z,3.20
2018-09-18T12:10:23.288Z,3.10
2018-09-18T12:11:23.324Z,3.10
2018-09-18T12:12:23.303Z,3.30
2018-09-18T12:13:23.302Z,3.60
2018-09-18T12:14:23.311Z,3.30
2018-09-18T12:15:23.319Z,2.90
2018-09-18T12:16:23.325Z,3.10
2018-09-18T12:17:23.335Z,3.00
2018-09-18T12:18:23.342Z,3.30
2018-09-18T12:19:23.348Z,3.20
2018-09-18T12:20:23.355Z,2.90
2018-09-18T12:21:23.358Z,2.70
2018-09-18T12:22:23.472Z,2.60
2018-09-18T12:23:23.374Z,2.70
2018-09-18T12:24:23.381Z,2.30
2018-09-18T12:25:23.382Z,2.40
2018-09-18T12:26:23.389Z,2.30
2018-09-18T12:27:23.399Z,2.40
2018-09-18T12:28:23.407Z,2.30
2018-09-18T12:29:23.414Z,2.40
2018-09-18T12:30:23.421Z,2.40
2018-09-18T12:31:23.427Z,2.50
2018-09-18T12:32:23.434Z,2.10
2018-09-18T12:33:23.435Z,2.60
2018-09-18T12:34:23.441Z,2.40
2018-09-18T12:35:23.515Z,2.70
2018-09-18T12:36:23.454Z,2.40
2018-09-18T12:37:23.469Z,2.90
2018-09-18T12:38:23.472Z,2.30
2018-09-18T12:39:23.473Z,2.00
2018-09-18T12:40:23.479Z,2.10
2018-09-18T12:41:23.536Z,2.20
2018-09-18T12:42:23.535Z,2.20
2018-09-18T12:43:23.503Z,2.30
2018-09-18T12:44:23.513Z,2.40
2018-09-18T12:45:23.509Z,2.30
2018-09-18T12:46:23.517Z,2.00
2018-09-18T12:47:23.522Z,2.20
2018-09-18T12:48:23.529Z,2.50
2018-09-18T12:49:23.684Z,2.40
2018-09-18T12:50:23.692Z,2.30
2018-09-18T12:51:23.551Z,2.20
2018-09-18T12:52:23.557Z,2.20
2018-09-18T12:53:23.558Z,2.30
2018-09-18T12:54:23.569Z,2.20
2018-09-18T12:55:23.575Z,2.20
2018-09-18T12:56:23.581Z,2.30
2018-09-18T12:57:23.737Z,2.20
2018-09-18T12:58:23.623Z,1.90
2018-09-18T12:59:23.730Z,2.20
2018-09-18T13:00:23.636Z,2.20
2018-09-18T13:01:23.613Z,2.00
2018-09-18T13:02:23.727Z,2.10
2018-09-18T13:03:23.621Z,2.20
2018-09-18T13:04:23.630Z,2.20
2018-09-18T13:05:23.628Z,1.80
2018-09-18T13:06:23.806Z,2.10
2018-09-18T13:07:23.649Z,1.80
2018-09-18T13:08:23.646Z,1.90
2018-09-18T13:09:23.657Z,2.10
2018-09-18T13:10:23.662Z,2.20
2018-09-18T13:11:23.663Z,2.10
2018-09-18T13:12:23.672Z,1.90
2018-09-18T13:13:23.679Z,2.10
2018-09-18T13:14:23.699Z,2.40
2018-09-18T13:15:23.692Z,1.90
2018-09-18T13:16:23.698Z,1.80
2018-09-18T13:17:23.765Z,1.70
2018-09-18T13:18:23.782Z,1.90